Startpagina
METAR-TAF:

METAR-TAF

Vliegvelden :

Aéroport Le Havre Octeville

Le Havre, Frankrijk

breedte: 49-31N, lengte: 000-04E, hoogte: 100 m

Actueel weer

Dit bericht is 26 minuten geleden gemaakt, om 20:30 UTC
Wind 8 kt uit het noordnoordwesten
Temperatuur 9°C
Vochtigheid 100%
Druk 1025 hPa
Zicht: 0650 m
mist

METAR: LFOH 232030Z AUTO 33008KT 0650 R22/0800N FG VV/// 09/09 Q1025

Tijdstip: 21:56 (20:56 UTC)

Verwachting

Dit bericht is 2 uur en het 28 minuten geleden gemaakt, om 18:28 UTC
Verwachting geldig van 23 om 18 UTC tot 24 om 12 UTC
Wind 12 kt uit het westen
Zicht: 3000 m
Geheel bewolkt op 300 ft
nevel
Tijdelijke
van 23 om 18 UTC tot 24 om 02 UTC
Zicht: 0600 m
mist
Tijdelijke
van 24 om 02 UTC tot 24 om 09 UTC
Zicht: 1200 m
motregen, regen
Wijzigt naar
van 24 om 09 UTC tot 24 om 12 UTC
Wind 20 kt uit het zuidwesten met uitschieters tot 30 kt

TAF: LFOH 231828Z 2318/2412 27012KT 3000 BR OVC003 TEMPO 2318/2402 0600 FG VV/// TEMPO 2402/2409 1200 DZRA BECMG 2409/2412 23020G30KT

Waarnemingen en weersverwachtingen van meer dan 4000 vliegvelden (METAR en TAF).

De beschikbare stations zijn de gele en rode punten op de kaart.

Ga met uw muis naar het station om de naam te zien.

Klik dan om waarnemingen en weersverwachtingen te zien.

kaart wijzigen: klik op de groene knoppen met een zwart kruis om in te zoomen, op de groene knop met een streepje om uit te zoomen of op de groene pijlen voor aangrenzende kaarten.


METAR-TAF: